Terminal Aerodrome Forecast
Issued by NWS

Home | Current Version | Previous Version | Text Only | Print | Product List | Glossary On
Versions: 1 2 3 4 5 6 7 8 9 10 11 12 13 14 15 16 17 18 19 20 21 22 23 24 25 26 27 28 29 30 31 32 33 34 35 36 37 38 39 40 41 42 43 44 45 46 47 48 49 50
000
FTUS44 KBMX 031541 AAC
TAFASN
TAF AMD
KASN 031541Z 0316/0412 24010KT P6SM BKN040
     FM032000 25010KT 3SM SHRA BR BKN035 OVC050
      TEMPO 0320/0322 1SM +TSRA BR BKN025CB OVC040
     FM032200 24014G22KT P6SM VCTS SCT050CB
     FM040300 32006KT 4SM SHRA VCTS SCT050CB OVC100
     FM040600 25010KT 2SM TSRA BKN007CB OVC015=

USA.gov is the U.S. government's official web portal to all federal, state and local government web resources and services.